Terminal Aerodrome Forecast
Issued by NWS Kansas City/Pleasant Hill, MO

Home | Current Version | Previous Version | Text Only | Print | Product List | Glossary On
Versions: 1 2 3 4 5 6 7 8 9 10 11 12 13
000
FTUS43 KEAX 120500
TAFMCI
TAF
KMCI 120520Z 1206/1306 20008KT P6SM SCT100
     FM121500 21012G23KT P6SM SCT050
     FM130000 19008KT P6SM SCT050=

USA.gov is the U.S. government's official web portal to all federal, state and local government web resources and services.